createdAt,value
2019-05-03T00:01:32.438Z,9.10
2019-05-03T00:04:03.147Z,9.10
2019-05-03T00:06:33.319Z,9.10
2019-05-03T00:09:11.938Z,9.00
2019-05-03T00:11:42.365Z,9.00
2019-05-03T00:14:13.097Z,9.00
2019-05-03T00:16:44.856Z,8.90
2019-05-03T00:19:14.977Z,9.00
2019-05-03T00:21:45.093Z,9.00
2019-05-03T00:24:15.213Z,8.90
2019-05-03T00:26:45.335Z,8.90
2019-05-03T00:29:15.449Z,8.90
2019-05-03T00:31:45.777Z,8.90
2019-05-03T00:34:17.532Z,8.90
2019-05-03T00:36:49.296Z,8.90
2019-05-03T00:39:26.579Z,8.90
2019-05-03T00:41:56.696Z,8.90
2019-05-03T00:44:27.019Z,8.80
2019-05-03T00:46:57.142Z,8.80
2019-05-03T00:49:27.257Z,8.80
2019-05-03T00:51:57.377Z,8.80
2019-05-03T00:54:27.503Z,8.80
2019-05-03T00:56:57.526Z,8.70
2019-05-03T00:59:27.735Z,8.70
2019-05-03T01:01:57.853Z,8.70
2019-05-03T01:04:27.972Z,8.70
2019-05-03T01:06:58.091Z,8.70
2019-05-03T01:09:28.223Z,8.60
2019-05-03T01:11:58.332Z,8.60
2019-05-03T01:14:28.453Z,8.60
2019-05-03T01:16:58.570Z,8.60
2019-05-03T01:19:28.901Z,8.50
2019-05-03T01:21:59.021Z,8.50
2019-05-03T01:24:29.134Z,8.50
2019-05-03T01:26:59.251Z,8.50
2019-05-03T01:29:29.370Z,8.50
2019-05-03T01:31:59.489Z,8.50
2019-05-03T01:34:29.611Z,8.40
2019-05-03T01:36:59.933Z,8.40
2019-05-03T01:39:31.577Z,8.40
2019-05-03T01:42:02.681Z,8.40
2019-05-03T01:44:33.157Z,8.40
2019-05-03T01:47:05.118Z,8.40
2019-05-03T01:49:36.875Z,8.30
2019-05-03T01:52:14.371Z,8.30
2019-05-03T01:54:44.488Z,8.30
2019-05-03T01:57:14.812Z,8.30
2019-05-03T01:59:44.930Z,8.30
2019-05-03T02:02:19.056Z,8.20
2019-05-03T02:04:50.902Z,8.20
2019-05-03T02:07:22.360Z,8.20
2019-05-03T02:09:52.779Z,8.20
2019-05-03T02:12:22.901Z,8.20
2019-05-03T02:14:54.250Z,8.10
2019-05-03T02:17:24.573Z,8.10
2019-05-03T02:19:54.690Z,8.10
2019-05-03T02:22:24.808Z,8.10
2019-05-03T02:24:54.931Z,8.10
2019-05-03T02:27:25.050Z,8.10
2019-05-03T02:29:55.166Z,8.10
2019-05-03T02:32:25.404Z,8.00
2019-05-03T02:34:55.611Z,8.10
2019-05-03T02:37:25.932Z,8.00
2019-05-03T02:39:57.192Z,8.00
2019-05-03T02:42:27.413Z,8.00
2019-05-03T02:44:58.747Z,8.00
2019-05-03T02:47:35.569Z,7.90
2019-05-03T02:50:08.560Z,7.90
2019-05-03T02:52:38.731Z,7.90
2019-05-03T02:55:10.289Z,7.90
2019-05-03T02:57:40.412Z,7.90
2019-05-03T03:00:15.995Z,7.90
2019-05-03T03:02:45.614Z,7.80
2019-05-03T03:05:16.673Z,7.80
2019-05-03T03:07:49.686Z,7.80
2019-05-03T03:10:20.015Z,7.80
2019-05-03T03:12:55.127Z,7.80
2019-05-03T03:15:26.190Z,7.80
2019-05-03T03:17:57.483Z,7.80
2019-05-03T03:20:28.272Z,7.80
2019-05-03T03:23:01.880Z,7.70
2019-05-03T03:25:36.913Z,7.80
2019-05-03T03:28:09.281Z,7.80
2019-05-03T03:31:07.970Z,7.70
2019-05-03T03:33:39.644Z,7.70
2019-05-03T03:36:31.616Z,7.70
2019-05-03T03:38:37.817Z,7.70
2019-05-03T03:41:08.136Z,7.70
2019-05-03T03:43:39.487Z,7.60
2019-05-03T03:46:10.833Z,7.60
2019-05-03T03:48:41.775Z,7.60
2019-05-03T03:51:15.554Z,7.60
2019-05-03T03:53:46.647Z,7.60
2019-05-03T03:56:18.910Z,7.60
2019-05-03T03:58:49.007Z,7.60
2019-05-03T04:01:19.129Z,7.50
2019-05-03T04:03:49.459Z,7.60
2019-05-03T04:06:19.776Z,7.50
2019-05-03T04:08:49.893Z,7.50
2019-05-03T04:11:20.218Z,7.50
2019-05-03T04:13:50.540Z,7.50
2019-05-03T04:16:31.720Z,7.50
2019-05-03T04:19:05.755Z,7.50
2019-05-03T04:21:36.097Z,7.40
2019-05-03T04:24:06.581Z,7.50
2019-05-03T04:26:37.316Z,7.40
2019-05-03T04:29:07.435Z,7.50
2019-05-03T04:31:37.554Z,7.40
2019-05-03T04:34:07.673Z,7.40
2019-05-03T04:36:37.797Z,7.40
2019-05-03T04:39:07.915Z,7.40
2019-05-03T04:41:38.031Z,7.40
2019-05-03T04:44:08.355Z,7.40
2019-05-03T04:46:38.680Z,7.40
2019-05-03T04:49:08.799Z,7.40
2019-05-03T04:51:38.914Z,7.40
2019-05-03T04:54:25.032Z,7.40
2019-05-03T04:56:56.133Z,7.40
2019-05-03T04:59:26.075Z,7.40
2019-05-03T05:01:56.603Z,7.40
2019-05-03T05:04:26.727Z,7.40
2019-05-03T05:06:57.040Z,7.40
2019-05-03T05:09:27.322Z,7.40
2019-05-03T05:11:57.689Z,7.40
2019-05-03T05:14:27.808Z,7.40
2019-05-03T05:16:58.136Z,7.40
2019-05-03T05:19:41.770Z,7.40
2019-05-03T05:22:15.380Z,7.40
2019-05-03T05:24:45.101Z,7.40
2019-05-03T05:27:22.980Z,7.40
2019-05-03T05:29:55.283Z,7.40
2019-05-03T05:32:25.061Z,7.40
2019-05-03T05:34:55.180Z,7.50
2019-05-03T05:37:25.298Z,7.50
2019-05-03T05:39:55.416Z,7.50
2019-05-03T05:42:25.442Z,7.50
2019-05-03T05:44:55.863Z,7.50
2019-05-03T05:47:37.040Z,7.60
2019-05-03T05:50:21.493Z,7.60
2019-05-03T05:52:51.535Z,7.70
2019-05-03T05:55:26.039Z,7.60
2019-05-03T05:58:04.678Z,7.60
2019-05-03T06:00:30.985Z,7.70
2019-05-03T06:03:01.308Z,7.70
2019-05-03T06:05:31.489Z,7.80
2019-05-03T06:08:19.784Z,7.80
2019-05-03T06:10:51.736Z,7.80
2019-05-03T06:13:32.214Z,7.80
2019-05-03T06:16:15.367Z,7.90
2019-05-03T06:18:54.406Z,7.90
2019-05-03T06:21:29.079Z,7.90
2019-05-03T06:24:04.459Z,7.90
2019-05-03T06:26:36.687Z,8.00
2019-05-03T06:29:07.891Z,8.00
2019-05-03T06:31:58.024Z,8.00
2019-05-03T06:34:28.357Z,8.00
2019-05-03T06:37:04.444Z,8.00
2019-05-03T06:39:35.213Z,8.10
2019-05-03T06:42:09.922Z,8.10
2019-05-03T06:44:39.060Z,8.10
2019-05-03T06:47:10.569Z,8.10
2019-05-03T06:49:44.811Z,8.20
2019-05-03T06:52:14.599Z,8.20
2019-05-03T06:54:44.960Z,8.20
2019-05-03T06:57:17.032Z,8.30
2019-05-03T06:59:48.796Z,8.30
2019-05-03T07:02:32.633Z,8.40
2019-05-03T07:05:07.465Z,8.40
2019-05-03T07:07:45.473Z,8.50
2019-05-03T07:10:24.829Z,8.50
2019-05-03T07:13:02.390Z,8.50
2019-05-03T07:15:32.715Z,8.50
2019-05-03T07:18:02.834Z,8.50
2019-05-03T07:20:35.303Z,8.50
2019-05-03T07:23:05.737Z,8.60
2019-05-03T07:25:35.858Z,8.70
2019-05-03T07:28:05.975Z,8.70
2019-05-03T07:30:37.036Z,8.80
2019-05-03T07:33:15.149Z,8.80
2019-05-03T07:35:45.549Z,8.80
2019-05-03T07:38:15.667Z,8.80
2019-05-03T07:40:45.991Z,8.90
2019-05-03T07:43:18.696Z,9.00
2019-05-03T07:45:48.069Z,9.00
2019-05-03T07:48:18.396Z,9.10
2019-05-03T07:50:48.520Z,9.10
2019-05-03T07:53:18.632Z,9.20
2019-05-03T07:55:54.748Z,9.20
2019-05-03T07:58:26.570Z,9.30
2019-05-03T08:01:06.235Z,9.40
2019-05-03T08:03:30.175Z,9.30
2019-05-03T08:06:00.290Z,9.40
2019-05-03T08:08:30.410Z,9.40
2019-05-03T08:11:00.734Z,9.40
2019-05-03T08:13:30.852Z,9.50
2019-05-03T08:16:01.178Z,9.50
2019-05-03T08:18:31.910Z,9.50
2019-05-03T08:21:02.032Z,9.50
2019-05-03T08:23:32.147Z,9.70
2019-05-03T08:26:02.265Z,9.70
2019-05-03T08:28:34.534Z,9.60
2019-05-03T08:31:06.395Z,9.60
2019-05-03T08:33:55.360Z,9.50
2019-05-03T08:36:25.681Z,9.50
2019-05-03T08:38:56.361Z,9.40
2019-05-03T08:41:28.581Z,9.50
2019-05-03T08:43:58.701Z,9.60
2019-05-03T08:46:28.819Z,9.70
2019-05-03T08:48:58.938Z,9.70
2019-05-03T08:51:29.267Z,9.80
2019-05-03T08:53:59.386Z,9.80
2019-05-03T08:56:29.503Z,9.80
2019-05-03T08:58:59.620Z,9.90
2019-05-03T09:01:29.744Z,10.10
2019-05-03T09:04:00.064Z,10.30
2019-05-03T09:06:30.190Z,10.30
2019-05-03T09:09:00.303Z,10.40
2019-05-03T09:11:33.681Z,10.30
2019-05-03T09:14:04.559Z,10.20
2019-05-03T09:16:35.573Z,10.00
2019-05-03T09:19:05.947Z,10.00
2019-05-03T09:21:36.225Z,10.10
2019-05-03T09:24:06.422Z,10.20
2019-05-03T09:26:36.667Z,10.30
2019-05-03T09:29:08.219Z,10.40
2019-05-03T09:31:38.541Z,10.50
2019-05-03T09:34:08.663Z,10.50
2019-05-03T09:36:40.623Z,10.60
2019-05-03T09:39:10.744Z,10.70
2019-05-03T09:41:40.870Z,10.60
2019-05-03T09:44:10.984Z,10.50
2019-05-03T09:46:41.040Z,10.50
2019-05-03T09:49:13.900Z,10.60
2019-05-03T09:51:44.408Z,10.60
2019-05-03T09:54:18.627Z,10.70
2019-05-03T09:56:58.955Z,10.70
2019-05-03T09:59:29.925Z,10.70
2019-05-03T10:02:00.985Z,10.70
2019-05-03T10:04:30.982Z,10.70
2019-05-03T10:07:01.311Z,10.80
2019-05-03T10:09:31.836Z,10.90
2019-05-03T10:12:02.688Z,11.00
2019-05-03T10:14:32.893Z,11.10
2019-05-03T10:17:07.722Z,11.10
2019-05-03T10:19:40.389Z,11.20
2019-05-03T10:22:09.607Z,11.20
2019-05-03T10:24:45.216Z,11.10
2019-05-03T10:27:15.578Z,11.00
2019-05-03T10:29:45.701Z,10.90
2019-05-03T10:32:35.390Z,10.90
2019-05-03T10:35:08.626Z,10.90
2019-05-03T10:37:38.782Z,11.00
2019-05-03T10:40:11.354Z,11.10
2019-05-03T10:42:41.744Z,11.00
2019-05-03T10:45:12.122Z,11.00
2019-05-03T10:47:42.333Z,11.10
2019-05-03T10:50:12.870Z,11.10
2019-05-03T10:52:44.831Z,11.00
2019-05-03T10:55:15.895Z,11.10
2019-05-03T10:57:47.712Z,11.20
2019-05-03T11:00:42.456Z,11.30
2019-05-03T11:02:55.950Z,11.30
2019-05-03T11:05:26.273Z,11.20
2019-05-03T11:07:56.596Z,11.30
2019-05-03T11:10:26.716Z,11.40
2019-05-03T11:12:57.130Z,11.30
2019-05-03T11:15:27.277Z,11.30
2019-05-03T11:17:57.483Z,11.30
2019-05-03T11:20:37.443Z,11.40
2019-05-03T11:23:08.578Z,11.50
2019-05-03T11:25:38.705Z,11.60
2019-05-03T11:28:19.874Z,11.60
2019-05-03T11:30:56.422Z,11.70
2019-05-03T11:33:24.752Z,11.60
2019-05-03T11:36:04.400Z,11.70
2019-05-03T11:38:36.562Z,11.60
2019-05-03T11:41:06.853Z,11.60
2019-05-03T11:43:36.972Z,11.70
2019-05-03T11:46:07.298Z,11.80
2019-05-03T11:48:37.416Z,11.80
2019-05-03T11:51:07.537Z,11.80
2019-05-03T11:53:37.664Z,11.80
2019-05-03T11:56:07.980Z,11.80
2019-05-03T11:58:38.303Z,11.70
2019-05-03T12:01:15.729Z,11.60
2019-05-03T12:03:45.037Z,11.60
2019-05-03T12:06:15.724Z,11.50
2019-05-03T12:08:46.155Z,11.40
2019-05-03T12:11:16.271Z,11.40
2019-05-03T12:13:46.599Z,11.50
2019-05-03T12:16:23.982Z,11.70
2019-05-03T12:18:53.482Z,11.90
2019-05-03T12:21:21.434Z,12.00
2019-05-03T12:23:52.256Z,12.10
2019-05-03T12:26:25.502Z,12.20
2019-05-03T12:28:54.682Z,12.10
2019-05-03T12:31:33.884Z,12.10
2019-05-03T12:33:56.767Z,12.20
2019-05-03T12:36:26.885Z,12.30
2019-05-03T12:38:57.024Z,12.30
2019-05-03T12:41:27.106Z,12.30
2019-05-03T12:43:57.283Z,12.20
2019-05-03T12:46:27.563Z,12.20
2019-05-03T12:48:57.687Z,12.10
2019-05-03T12:51:28.111Z,12.10
2019-05-03T12:53:58.541Z,12.10
2019-05-03T12:56:32.614Z,12.10
2019-05-03T12:59:07.995Z,12.10
2019-05-03T13:01:45.121Z,12.10
2019-05-03T13:04:18.678Z,12.10
2019-05-03T13:06:56.781Z,12.10
2019-05-03T13:09:27.104Z,12.20
2019-05-03T13:11:59.175Z,12.20
2019-05-03T13:14:29.595Z,12.30
2019-05-03T13:16:59.724Z,12.40
2019-05-03T13:19:29.836Z,12.30
2019-05-03T13:21:59.968Z,12.30
2019-05-03T13:24:30.277Z,12.30
2019-05-03T13:27:00.604Z,12.20
2019-05-03T13:29:30.929Z,12.30
2019-05-03T13:32:02.202Z,12.20
2019-05-03T13:34:32.597Z,12.20
2019-05-03T13:37:02.944Z,12.30
2019-05-03T13:39:33.043Z,12.20
2019-05-03T13:42:05.499Z,12.10
2019-05-03T13:44:35.551Z,12.00
2019-05-03T13:47:06.268Z,12.00
2019-05-03T13:49:36.291Z,12.00
2019-05-03T13:52:07.290Z,12.00
2019-05-03T13:54:37.540Z,12.00
2019-05-03T13:57:07.768Z,12.00
2019-05-03T13:59:38.091Z,12.00
2019-05-03T14:02:15.167Z,11.90
2019-05-03T14:04:51.785Z,11.90
2019-05-03T14:07:11.537Z,11.90
2019-05-03T14:09:41.847Z,11.90
2019-05-03T14:12:12.088Z,11.90
2019-05-03T14:14:55.834Z,12.00
2019-05-03T14:17:28.178Z,12.00
2019-05-03T14:20:09.153Z,12.00
2019-05-03T14:22:43.779Z,12.00
2019-05-03T14:25:15.171Z,12.10
2019-05-03T14:27:45.743Z,12.00
2019-05-03T14:30:18.238Z,11.90
2019-05-03T14:32:48.193Z,11.90
2019-05-03T14:35:18.330Z,11.80
2019-05-03T14:37:48.451Z,11.80
2019-05-03T14:40:18.690Z,11.70
2019-05-03T14:42:48.807Z,11.60
2019-05-03T14:45:19.355Z,11.50
2019-05-03T14:47:49.684Z,11.50
2019-05-03T14:50:19.805Z,11.50
2019-05-03T14:52:50.123Z,11.50
2019-05-03T14:55:28.231Z,11.50
2019-05-03T14:58:05.927Z,11.50
2019-05-03T15:00:37.684Z,11.50
2019-05-03T15:03:09.443Z,11.50
2019-05-03T15:05:39.768Z,11.50
2019-05-03T15:08:10.090Z,11.50
2019-05-03T15:10:40.413Z,11.50
2019-05-03T15:13:10.535Z,11.50
2019-05-03T15:15:40.653Z,11.50
2019-05-03T15:18:10.978Z,11.50
2019-05-03T15:20:41.346Z,11.50
2019-05-03T15:23:11.625Z,11.50
2019-05-03T15:25:41.745Z,11.40
2019-05-03T15:28:11.867Z,11.40
2019-05-03T15:30:44.385Z,11.30
2019-05-03T15:33:15.139Z,11.30
2019-05-03T15:35:46.746Z,11.30
2019-05-03T15:38:16.850Z,11.30
2019-05-03T15:40:46.979Z,11.30
2019-05-03T15:43:18.723Z,11.20
2019-05-03T15:45:50.485Z,11.20
2019-05-03T15:48:24.439Z,11.20
2019-05-03T15:50:55.351Z,11.10
2019-05-03T15:53:25.548Z,11.00
2019-05-03T15:55:55.872Z,11.00
2019-05-03T15:58:26.200Z,10.90
2019-05-03T16:00:56.314Z,10.90
2019-05-03T16:03:26.435Z,10.90
2019-05-03T16:05:56.759Z,10.90
2019-05-03T16:08:26.997Z,10.90
2019-05-03T16:10:57.019Z,10.90
2019-05-03T16:13:27.118Z,10.90
2019-05-03T16:15:57.236Z,10.90
2019-05-03T16:18:27.354Z,10.90
2019-05-03T16:20:57.678Z,10.90
2019-05-03T16:23:27.800Z,10.80
2019-05-03T16:25:58.124Z,10.80
2019-05-03T16:28:46.390Z,10.80
2019-05-03T16:31:21.302Z,10.80
2019-05-03T16:33:51.420Z,10.80
2019-05-03T16:36:21.537Z,10.70
2019-05-03T16:38:51.868Z,10.70
2019-05-03T16:41:21.985Z,10.70
2019-05-03T16:43:52.304Z,10.70
2019-05-03T16:46:22.627Z,10.60
2019-05-03T16:48:52.748Z,10.60
2019-05-03T16:51:22.872Z,10.00
2019-05-03T16:53:54.945Z,10.10
2019-05-03T16:56:24.949Z,10.40
2019-05-03T16:58:56.092Z,10.70
2019-05-03T17:01:26.216Z,10.90
2019-05-03T17:03:58.174Z,10.90
2019-05-03T17:06:34.708Z,11.00
2019-05-03T17:09:10.494Z,11.00
2019-05-03T17:11:40.618Z,11.10
2019-05-03T17:14:10.939Z,11.10
2019-05-03T17:16:41.057Z,11.20
2019-05-03T17:19:11.388Z,11.20
2019-05-03T17:21:41.504Z,11.20
2019-05-03T17:24:11.622Z,11.20
2019-05-03T17:26:41.945Z,11.20
2019-05-03T17:29:12.061Z,11.20
2019-05-03T17:31:44.201Z,11.20
2019-05-03T17:34:14.521Z,11.20
2019-05-03T17:36:45.024Z,11.20
2019-05-03T17:39:34.541Z,11.20
2019-05-03T17:42:06.416Z,11.20
2019-05-03T17:44:38.180Z,11.20
2019-05-03T17:47:08.497Z,11.20
2019-05-03T17:49:38.617Z,11.20
2019-05-03T17:52:10.580Z,11.10
2019-05-03T17:54:45.202Z,11.10
2019-05-03T17:57:31.714Z,11.10
2019-05-03T18:00:04.247Z,11.10
2019-05-03T18:02:45.261Z,11.00
2019-05-03T18:05:34.468Z,11.00
2019-05-03T18:08:18.484Z,11.00
2019-05-03T18:11:04.425Z,11.00
2019-05-03T18:13:35.421Z,11.00
2019-05-03T18:16:05.827Z,11.00
2019-05-03T18:18:35.946Z,10.90
2019-05-03T18:21:06.066Z,10.90
2019-05-03T18:23:36.187Z,10.90
2019-05-03T18:26:06.506Z,10.90
2019-05-03T18:28:36.637Z,10.90
2019-05-03T18:31:08.735Z,10.90
2019-05-03T18:33:38.506Z,10.80
2019-05-03T18:36:09.361Z,10.80
2019-05-03T18:38:39.892Z,10.80
2019-05-03T18:41:11.231Z,10.80
2019-05-03T18:43:42.890Z,10.70
2019-05-03T18:46:20.572Z,10.70
2019-05-03T18:48:52.125Z,10.70
2019-05-03T18:51:22.444Z,10.60
2019-05-03T18:53:54.298Z,10.60
2019-05-03T18:56:25.204Z,10.50
2019-05-03T18:58:55.670Z,10.50
2019-05-03T19:01:25.789Z,10.50
2019-05-03T19:03:57.558Z,10.50
2019-05-03T19:06:27.872Z,10.40
2019-05-03T19:09:16.012Z,10.40
2019-05-03T19:12:04.821Z,10.40
2019-05-03T19:14:35.305Z,10.40
2019-05-03T19:17:24.762Z,10.30
2019-05-03T19:19:56.834Z,10.30
2019-05-03T19:22:26.956Z,10.20
2019-05-03T19:24:57.279Z,10.20
2019-05-03T19:27:27.607Z,10.20
2019-05-03T19:29:57.852Z,10.10
2019-05-03T19:32:28.325Z,10.10
2019-05-03T19:34:58.986Z,10.10
2019-05-03T19:37:29.108Z,10.10
2019-05-03T19:39:59.428Z,10.10
2019-05-03T19:42:29.546Z,10.10
2019-05-03T19:44:59.872Z,10.10
2019-05-03T19:47:30.196Z,10.10
2019-05-03T19:50:00.517Z,10.00
2019-05-03T19:52:34.338Z,10.00
2019-05-03T19:55:05.688Z,10.00
2019-05-03T19:57:37.638Z,9.90
2019-05-03T20:00:09.566Z,9.90
2019-05-03T20:02:47.299Z,9.80
2019-05-03T20:05:25.188Z,9.90
2019-05-03T20:08:06.172Z,9.80
2019-05-03T20:10:36.493Z,9.70
2019-05-03T20:13:06.816Z,9.70
2019-05-03T20:15:36.941Z,9.60
2019-05-03T20:18:07.055Z,9.60
2019-05-03T20:20:37.379Z,9.70
2019-05-03T20:23:07.906Z,9.60
2019-05-03T20:25:38.028Z,9.60
2019-05-03T20:28:08.147Z,9.60
2019-05-03T20:30:38.267Z,9.60
2019-05-03T20:33:08.595Z,9.50
2019-05-03T20:35:38.710Z,9.50
2019-05-03T20:38:08.828Z,9.50
2019-05-03T20:40:38.949Z,9.40
2019-05-03T20:43:19.921Z,9.40
2019-05-03T20:46:10.473Z,9.40
2019-05-03T20:48:41.588Z,9.40
2019-05-03T20:51:11.785Z,9.30
2019-05-03T20:53:42.516Z,9.30
2019-05-03T20:56:12.844Z,9.30
2019-05-03T20:58:44.602Z,9.30
2019-05-03T21:01:15.288Z,9.20
2019-05-03T21:03:45.657Z,9.20
2019-05-03T21:06:18.647Z,9.20
2019-05-03T21:08:52.968Z,9.20
2019-05-03T21:11:20.520Z,9.20
2019-05-03T21:13:50.639Z,9.20
2019-05-03T21:16:26.290Z,9.20
2019-05-03T21:18:58.247Z,9.10
2019-05-03T21:21:36.137Z,9.10
2019-05-03T21:24:13.237Z,9.10
2019-05-03T21:26:45.057Z,9.00
2019-05-03T21:29:15.235Z,9.00
2019-05-03T21:31:45.469Z,9.00
2019-05-03T21:34:15.562Z,8.90
2019-05-03T21:36:45.673Z,8.90
2019-05-03T21:39:15.793Z,8.90
2019-05-03T21:41:46.118Z,8.90
2019-05-03T21:44:26.885Z,8.80
2019-05-03T21:46:59.050Z,8.90
2019-05-03T21:49:31.014Z,8.80
2019-05-03T21:52:01.342Z,8.80
2019-05-03T21:54:31.474Z,8.80
2019-05-03T21:57:01.577Z,8.80
2019-05-03T21:59:31.902Z,8.70
2019-05-03T22:02:02.120Z,8.70
2019-05-03T22:04:32.346Z,8.70
2019-05-03T22:07:02.462Z,8.80
2019-05-03T22:09:34.778Z,8.80
2019-05-03T22:12:05.244Z,8.80
2019-05-03T22:14:55.347Z,8.80
2019-05-03T22:17:29.974Z,8.80
2019-05-03T22:20:01.935Z,8.80
2019-05-03T22:22:45.780Z,8.80
2019-05-03T22:25:17.741Z,8.80
2019-05-03T22:27:48.066Z,8.70
2019-05-03T22:30:18.389Z,8.70
2019-05-03T22:32:48.713Z,8.70
2019-05-03T22:35:19.056Z,8.70
2019-05-03T22:37:49.358Z,8.70
2019-05-03T22:40:19.488Z,8.60
2019-05-03T22:42:49.804Z,8.60
2019-05-03T22:45:20.131Z,8.60
2019-05-03T22:47:50.450Z,8.50
2019-05-03T22:50:20.981Z,8.50
2019-05-03T22:52:51.304Z,8.50
2019-05-03T22:55:21.424Z,8.50
2019-05-03T22:57:51.745Z,8.50
2019-05-03T23:00:22.070Z,8.50
2019-05-03T23:02:52.189Z,8.50
2019-05-03T23:05:22.512Z,8.40
2019-05-03T23:07:55.090Z,8.40
2019-05-03T23:10:25.725Z,8.30
2019-05-03T23:12:56.148Z,8.30
2019-05-03T23:15:26.269Z,8.30
2019-05-03T23:17:56.593Z,8.20
2019-05-03T23:20:40.439Z,8.20
2019-05-03T23:23:12.189Z,8.20
2019-05-03T23:25:44.819Z,8.10
2019-05-03T23:28:14.518Z,8.10
2019-05-03T23:30:44.799Z,8.10
2019-05-03T23:33:15.329Z,8.20
2019-05-03T23:35:45.652Z,8.20
2019-05-03T23:38:15.772Z,8.10
2019-05-03T23:40:46.097Z,8.10
2019-05-03T23:43:16.215Z,8.10
2019-05-03T23:45:46.132Z,8.10
2019-05-03T23:48:16.164Z,8.10
2019-05-03T23:50:46.367Z,8.10
2019-05-03T23:53:16.693Z,8.10
2019-05-03T23:55:48.449Z,8.10
2019-05-03T23:58:18.571Z,8.00
